createdAt,value
2023-03-28T00:01:04.660Z,1.27
2023-03-28T00:03:35.947Z,1.80
2023-03-28T00:06:05.925Z,1.50
2023-03-28T00:08:33.288Z,1.10
2023-03-28T00:11:09.017Z,1.90
2023-03-28T00:13:36.632Z,1.35
2023-03-28T00:16:10.241Z,1.88
2023-03-28T00:18:40.375Z,1.35
2023-03-28T00:21:19.856Z,1.55
2023-03-28T00:23:46.941Z,2.15
2023-03-28T00:26:13.908Z,1.70
2023-03-28T00:28:41.063Z,1.65
2023-03-28T00:31:08.891Z,1.63
2023-03-28T00:33:36.054Z,1.30
2023-03-28T00:36:03.398Z,2.38
2023-03-28T00:38:31.561Z,1.80
2023-03-28T00:40:58.609Z,1.80
2023-03-28T00:43:43.380Z,1.75
2023-03-28T00:46:13.182Z,1.50
2023-03-28T00:48:47.052Z,1.60
2023-03-28T00:51:14.835Z,1.65
2023-03-28T00:53:43.106Z,1.38
2023-03-28T00:56:12.527Z,1.63
2023-03-28T00:58:43.928Z,1.33
2023-03-28T01:01:15.856Z,1.70
2023-03-28T01:03:46.764Z,1.55
2023-03-28T01:06:15.802Z,2.20
2023-03-28T01:08:47.242Z,1.80
2023-03-28T01:11:15.396Z,1.92
2023-03-28T01:13:46.724Z,1.90
2023-03-28T01:16:16.091Z,1.65
2023-03-28T01:18:47.216Z,1.83
2023-03-28T01:21:34.024Z,2.00
2023-03-28T01:24:11.449Z,2.15
2023-03-28T01:27:03.240Z,1.60
2023-03-28T01:30:01.826Z,1.85
2023-03-28T01:33:11.226Z,1.70
2023-03-28T01:36:13.772Z,1.45
2023-03-28T01:39:09.704Z,1.67
2023-03-28T01:42:01.466Z,1.73
2023-03-28T01:44:38.832Z,1.40
2023-03-28T01:47:16.150Z,1.30
2023-03-28T01:50:11.853Z,1.35
2023-03-28T01:52:57.306Z,1.58
2023-03-28T01:55:30.395Z,1.58
2023-03-28T01:58:30.535Z,2.47
2023-03-28T02:01:17.666Z,1.40
2023-03-28T02:03:49.482Z,2.22
2023-03-28T02:06:18.074Z,1.65
2023-03-28T02:08:46.635Z,1.40
2023-03-28T02:11:13.972Z,2.22
2023-03-28T02:13:47.490Z,1.85
2023-03-28T02:16:17.001Z,2.00
2023-03-28T02:18:49.680Z,1.70
2023-03-28T02:21:24.208Z,1.63
2023-03-28T02:23:54.148Z,1.65
2023-03-28T02:26:22.929Z,2.05
2023-03-28T02:28:53.222Z,1.75
2023-03-28T02:31:22.549Z,1.50
2023-03-28T02:33:50.895Z,1.65
2023-03-28T02:36:44.416Z,1.27
2023-03-28T02:39:17.331Z,1.70
2023-03-28T02:42:19.403Z,1.85
2023-03-28T02:44:46.340Z,1.35
2023-03-28T02:47:36.855Z,1.45
2023-03-28T02:50:34.187Z,1.63
2023-03-28T02:53:27.354Z,1.35
2023-03-28T02:56:07.094Z,1.42
2023-03-28T02:58:41.189Z,1.50
2023-03-28T03:01:10.565Z,1.48
2023-03-28T03:03:38.186Z,1.50
2023-03-28T03:06:06.406Z,1.40
2023-03-28T03:08:33.462Z,1.20
2023-03-28T03:11:00.481Z,1.20
2023-03-28T03:13:27.640Z,1.40
2023-03-28T03:15:56.368Z,1.42
2023-03-28T03:18:23.918Z,1.30
2023-03-28T03:20:50.925Z,1.15
2023-03-28T03:23:18.098Z,1.27
2023-03-28T03:25:45.435Z,1.30
2023-03-28T03:28:13.485Z,0.90
2023-03-28T03:30:40.654Z,1.35
2023-03-28T03:33:10.480Z,1.27
2023-03-28T03:35:38.740Z,1.65
2023-03-28T03:38:05.836Z,1.20
2023-03-28T03:40:32.822Z,0.90
2023-03-28T03:42:59.814Z,1.02
2023-03-28T03:45:27.154Z,1.10
2023-03-28T03:47:54.229Z,1.10
2023-03-28T03:50:21.406Z,0.98
2023-03-28T03:52:48.455Z,1.10
2023-03-28T03:55:15.405Z,1.23
2023-03-28T03:57:42.704Z,1.30
2023-03-28T04:00:12.355Z,0.73
2023-03-28T04:02:40.515Z,1.33
2023-03-28T04:05:08.880Z,1.20
2023-03-28T04:07:36.572Z,1.13
2023-03-28T04:10:05.090Z,1.05
2023-03-28T04:12:32.248Z,1.35
2023-03-28T04:14:59.250Z,1.30
2023-03-28T04:17:30.220Z,1.23
2023-03-28T04:19:57.410Z,1.30
2023-03-28T04:22:30.150Z,1.00
2023-03-28T04:24:57.823Z,1.05
2023-03-28T04:27:31.501Z,1.13
2023-03-28T04:30:00.701Z,0.90
2023-03-28T04:32:28.131Z,1.30
2023-03-28T04:34:55.134Z,1.00
2023-03-28T04:37:22.700Z,0.93
2023-03-28T04:39:49.836Z,0.90
2023-03-28T04:42:17.393Z,1.40
2023-03-28T04:44:44.517Z,1.30
2023-03-28T04:47:15.092Z,1.10
2023-03-28T04:49:42.071Z,1.25
2023-03-28T04:52:09.141Z,0.90
2023-03-28T04:54:36.135Z,1.00
2023-03-28T04:57:05.146Z,0.85
2023-03-28T04:59:32.207Z,1.02
2023-03-28T05:01:59.319Z,0.70
2023-03-28T05:04:27.925Z,1.00
2023-03-28T05:06:54.995Z,0.70
2023-03-28T05:09:22.923Z,1.30
2023-03-28T05:11:50.896Z,1.02
2023-03-28T05:14:18.190Z,0.82
2023-03-28T05:16:45.701Z,1.33
2023-03-28T05:19:12.851Z,0.60
2023-03-28T05:21:41.265Z,1.00
2023-03-28T05:24:09.074Z,0.90
2023-03-28T05:26:36.744Z,1.00
2023-03-28T05:29:04.194Z,0.75
2023-03-28T05:31:31.319Z,1.00
2023-03-28T05:33:58.481Z,1.40
2023-03-28T05:36:25.690Z,1.25
2023-03-28T05:38:52.732Z,0.88
2023-03-28T05:41:19.972Z,1.27
2023-03-28T05:43:47.078Z,1.08
2023-03-28T05:46:14.123Z,1.02
2023-03-28T05:48:41.127Z,0.98
2023-03-28T05:51:08.273Z,0.95
2023-03-28T05:53:35.448Z,0.80
2023-03-28T05:56:02.493Z,0.80
2023-03-28T05:58:29.773Z,0.70
2023-03-28T06:00:56.772Z,0.93
2023-03-28T06:03:23.864Z,1.20
2023-03-28T06:05:50.886Z,1.10
2023-03-28T06:08:17.943Z,0.98
2023-03-28T06:10:45.133Z,0.80
2023-03-28T06:13:12.131Z,0.70
2023-03-28T06:15:39.159Z,0.93
2023-03-28T06:18:06.336Z,0.60
2023-03-28T06:20:33.412Z,0.90
2023-03-28T06:23:00.556Z,0.80
2023-03-28T06:25:27.563Z,0.73
2023-03-28T06:27:54.632Z,1.02
2023-03-28T06:30:21.705Z,0.85
2023-03-28T06:32:48.812Z,0.65
2023-03-28T06:35:16.120Z,0.40
2023-03-28T06:37:43.105Z,0.52
2023-03-28T06:40:10.810Z,0.77
2023-03-28T06:42:37.929Z,1.10
2023-03-28T06:45:05.228Z,0.60
2023-03-28T06:47:32.295Z,0.63
2023-03-28T06:49:59.310Z,0.77
2023-03-28T06:52:26.338Z,0.50
2023-03-28T06:54:53.397Z,0.77
2023-03-28T06:57:20.500Z,0.70
2023-03-28T06:59:47.609Z,0.93
2023-03-28T07:02:14.646Z,0.90
2023-03-28T07:04:41.669Z,0.75
2023-03-28T07:07:09.670Z,0.70
2023-03-28T07:09:37.384Z,1.15
2023-03-28T07:12:04.960Z,0.95
2023-03-28T07:14:32.029Z,0.77
2023-03-28T07:16:59.032Z,0.90
2023-03-28T07:19:26.264Z,1.00
2023-03-28T07:21:53.328Z,1.42
2023-03-28T07:24:20.475Z,1.55
2023-03-28T07:26:47.524Z,0.60
2023-03-28T07:29:14.506Z,0.60
2023-03-28T07:31:41.759Z,1.00
2023-03-28T07:34:08.979Z,0.70
2023-03-28T07:36:36.120Z,0.82
2023-03-28T07:39:03.124Z,0.70
2023-03-28T07:41:30.173Z,0.68
2023-03-28T07:43:57.252Z,0.50
2023-03-28T07:46:25.320Z,0.73
2023-03-28T07:48:52.475Z,0.95
2023-03-28T07:51:19.719Z,0.77
2023-03-28T07:53:46.930Z,0.75
2023-03-28T07:56:14.318Z,0.90
2023-03-28T07:58:42.549Z,0.80
2023-03-28T08:01:12.929Z,0.93
2023-03-28T08:03:41.334Z,0.80
2023-03-28T08:06:20.550Z,0.63
2023-03-28T08:08:56.121Z,0.82
2023-03-28T08:11:23.184Z,0.50
2023-03-28T08:13:50.271Z,0.85
2023-03-28T08:16:17.342Z,0.63
2023-03-28T08:18:44.372Z,0.50
2023-03-28T08:21:11.459Z,1.27
2023-03-28T08:23:38.596Z,0.70
2023-03-28T08:26:07.605Z,1.00
2023-03-28T08:28:36.612Z,1.27
2023-03-28T08:31:14.420Z,0.65
2023-03-28T08:33:42.979Z,0.55
2023-03-28T08:36:15.101Z,2.25
2023-03-28T08:38:42.837Z,0.93
2023-03-28T08:41:38.866Z,1.00
2023-03-28T08:44:33.726Z,0.60
2023-03-28T08:47:12.433Z,0.80
2023-03-28T08:49:48.216Z,1.00
2023-03-28T08:52:19.368Z,1.00
2023-03-28T08:55:05.265Z,0.90
2023-03-28T08:57:35.197Z,1.13
2023-03-28T09:00:15.339Z,1.17
2023-03-28T09:02:43.734Z,1.23
2023-03-28T09:05:24.017Z,1.10
2023-03-28T09:08:17.704Z,1.45
2023-03-28T09:10:57.903Z,1.95
2023-03-28T09:13:40.125Z,1.30
2023-03-28T09:16:22.452Z,1.27
2023-03-28T09:19:15.800Z,1.63
2023-03-28T09:22:14.941Z,1.67
2023-03-28T09:25:08.565Z,0.85
2023-03-28T09:28:02.069Z,1.00
2023-03-28T09:30:39.316Z,1.55
2023-03-28T09:33:14.736Z,1.30
2023-03-28T09:35:42.659Z,1.35
2023-03-28T09:38:38.431Z,1.70
2023-03-28T09:41:17.071Z,1.40
2023-03-28T09:43:52.862Z,1.30
2023-03-28T09:46:47.117Z,1.25
2023-03-28T09:49:25.561Z,1.30
2023-03-28T09:51:56.171Z,1.23
2023-03-28T09:54:37.606Z,1.00
2023-03-28T09:57:06.018Z,1.45
2023-03-28T09:59:35.707Z,1.40
2023-03-28T10:02:04.358Z,1.42
2023-03-28T10:04:35.016Z,1.75
2023-03-28T10:07:10.955Z,1.45
2023-03-28T10:09:58.735Z,1.40
2023-03-28T10:12:37.948Z,1.30
2023-03-28T10:15:08.018Z,1.20
2023-03-28T10:17:37.825Z,1.48
2023-03-28T10:20:26.344Z,1.55
2023-03-28T10:22:56.236Z,1.52
2023-03-28T10:25:37.480Z,1.23
2023-03-28T10:28:06.963Z,1.55
2023-03-28T10:30:36.567Z,1.92
2023-03-28T10:33:18.717Z,1.25
2023-03-28T10:36:08.014Z,1.40
2023-03-28T10:38:44.293Z,1.70
2023-03-28T10:41:21.202Z,1.45
2023-03-28T10:43:49.513Z,1.52
2023-03-28T10:46:33.294Z,1.50
2023-03-28T10:49:13.793Z,0.95
2023-03-28T10:51:42.897Z,1.38
2023-03-28T10:54:28.692Z,1.10
2023-03-28T10:57:23.793Z,1.35
2023-03-28T11:00:13.054Z,1.77
2023-03-28T11:02:58.679Z,1.10
2023-03-28T11:05:36.401Z,1.92
2023-03-28T11:08:26.386Z,1.15
2023-03-28T11:11:22.230Z,1.25
2023-03-28T11:13:55.490Z,1.25
2023-03-28T11:16:48.392Z,1.13
2023-03-28T11:19:50.520Z,1.20
2023-03-28T11:22:20.459Z,1.30
2023-03-28T11:25:19.436Z,1.40
2023-03-28T11:28:10.567Z,1.00
2023-03-28T11:30:39.854Z,1.65
2023-03-28T11:33:22.209Z,1.30
2023-03-28T11:36:03.945Z,1.10
2023-03-28T11:38:37.481Z,1.45
2023-03-28T11:41:22.098Z,1.27
2023-03-28T11:44:03.925Z,0.70
2023-03-28T11:47:04.115Z,1.30
2023-03-28T11:49:37.050Z,1.30
2023-03-28T11:52:17.519Z,1.60
2023-03-28T11:55:09.541Z,0.98
2023-03-28T11:58:09.692Z,1.42
2023-03-28T12:00:42.626Z,1.70
2023-03-28T12:03:54.529Z,1.83
2023-03-28T12:07:02.202Z,1.58
2023-03-28T12:10:06.253Z,1.20
2023-03-28T12:12:42.010Z,1.20
2023-03-28T12:15:18.552Z,1.10
2023-03-28T12:17:59.454Z,1.90
2023-03-28T12:21:05.580Z,1.80
2023-03-28T12:24:06.015Z,0.70
2023-03-28T12:27:01.138Z,0.90
2023-03-28T12:29:42.766Z,1.13
2023-03-28T12:32:48.503Z,1.70
2023-03-28T12:35:24.944Z,1.20
2023-03-28T12:38:32.686Z,1.15
2023-03-28T12:41:05.999Z,1.20
2023-03-28T12:44:15.303Z,0.80
2023-03-28T12:46:47.548Z,0.88
2023-03-28T12:49:17.775Z,1.00
2023-03-28T12:51:52.692Z,0.73
2023-03-28T12:54:28.619Z,1.10
2023-03-28T12:57:37.506Z,1.08
2023-03-28T13:00:13.910Z,1.20
2023-03-28T13:03:07.644Z,1.05
2023-03-28T13:06:30.729Z,1.48
2023-03-28T13:09:34.744Z,1.35
2023-03-28T13:12:14.655Z,1.52
2023-03-28T13:14:43.147Z,1.30
2023-03-28T13:17:24.379Z,1.75
2023-03-28T13:20:09.800Z,1.00
2023-03-28T13:22:48.786Z,1.15
2023-03-28T13:25:28.289Z,1.48
2023-03-28T13:28:01.101Z,1.10
2023-03-28T13:30:32.570Z,1.40
2023-03-28T13:33:00.610Z,1.30
2023-03-28T13:35:50.496Z,1.35
2023-03-28T13:38:27.769Z,1.40
2023-03-28T13:41:07.120Z,1.10
2023-03-28T13:43:43.756Z,1.40
2023-03-28T13:46:19.367Z,1.27
2023-03-28T13:48:51.811Z,1.23
2023-03-28T13:51:27.490Z,1.65
2023-03-28T13:53:54.624Z,1.60
2023-03-28T13:56:25.506Z,1.40
2023-03-28T13:58:55.743Z,1.92
2023-03-28T14:01:27.064Z,1.00
2023-03-28T14:03:56.188Z,1.23
2023-03-28T14:06:27.261Z,1.35
2023-03-28T14:09:02.616Z,1.35
2023-03-28T14:11:36.689Z,1.55
2023-03-28T14:14:16.245Z,1.90
2023-03-28T14:16:45.426Z,1.77
2023-03-28T14:19:20.039Z,1.20
2023-03-28T14:21:48.982Z,1.63
2023-03-28T14:24:24.057Z,1.70
2023-03-28T14:26:52.279Z,1.90
2023-03-28T14:29:20.333Z,2.03
2023-03-28T14:31:50.450Z,2.03
2023-03-28T14:34:35.473Z,1.30
2023-03-28T14:37:18.693Z,1.52
2023-03-28T14:39:45.959Z,1.60
2023-03-28T14:42:18.907Z,2.30
2023-03-28T14:44:51.003Z,2.15
2023-03-28T14:47:30.032Z,1.60
2023-03-28T14:49:57.322Z,1.20
2023-03-28T14:52:36.106Z,1.83
2023-03-28T14:55:04.905Z,3.67
2023-03-28T14:57:33.228Z,1.40
2023-03-28T15:00:01.630Z,1.40
2023-03-28T15:02:39.617Z,1.40
2023-03-28T15:05:10.631Z,1.50
2023-03-28T15:07:38.016Z,1.80
2023-03-28T15:10:05.220Z,1.70
2023-03-28T15:12:34.641Z,2.00
2023-03-28T15:15:04.291Z,1.45
2023-03-28T15:17:38.795Z,2.22
2023-03-28T15:20:07.361Z,1.55
2023-03-28T15:22:36.119Z,1.40
2023-03-28T15:25:03.288Z,2.20
2023-03-28T15:27:33.517Z,1.35
2023-03-28T15:30:07.967Z,1.40
2023-03-28T15:32:35.034Z,1.95
2023-03-28T15:35:04.995Z,1.98
2023-03-28T15:37:43.177Z,1.80
2023-03-28T15:40:19.112Z,2.10
2023-03-28T15:42:52.495Z,1.50
2023-03-28T15:45:19.527Z,1.90
2023-03-28T15:47:50.391Z,1.65
2023-03-28T15:50:36.836Z,1.50
2023-03-28T15:53:12.692Z,1.58
2023-03-28T15:55:42.050Z,1.75
2023-03-28T15:58:14.714Z,1.55
2023-03-28T16:00:55.343Z,1.65
2023-03-28T16:03:26.629Z,1.20
2023-03-28T16:06:01.825Z,1.20
2023-03-28T16:08:44.911Z,1.35
2023-03-28T16:11:21.694Z,1.42
2023-03-28T16:13:49.235Z,1.33
2023-03-28T16:16:26.417Z,1.38
2023-03-28T16:18:53.662Z,1.40
2023-03-28T16:21:20.743Z,1.65
2023-03-28T16:23:48.411Z,1.30
2023-03-28T16:26:16.098Z,1.67
2023-03-28T16:28:43.251Z,1.15
2023-03-28T16:31:15.780Z,1.80
2023-03-28T16:33:42.904Z,2.25
2023-03-28T16:36:13.227Z,3.05
2023-03-28T16:38:40.563Z,2.65
2023-03-28T16:41:08.180Z,2.38
2023-03-28T16:43:35.304Z,1.50
2023-03-28T16:46:03.007Z,1.70
2023-03-28T16:48:32.558Z,1.55
2023-03-28T16:51:05.381Z,1.65
2023-03-28T16:53:34.464Z,1.75
2023-03-28T16:56:02.371Z,1.55
2023-03-28T16:58:30.045Z,1.80
2023-03-28T17:00:57.607Z,2.20
2023-03-28T17:03:25.090Z,1.45
2023-03-28T17:05:52.277Z,2.08
2023-03-28T17:08:19.669Z,1.80
2023-03-28T17:10:47.947Z,1.50
2023-03-28T17:13:15.897Z,1.98
2023-03-28T17:15:43.342Z,1.35
2023-03-28T17:18:11.582Z,1.48
2023-03-28T17:20:39.220Z,1.45
2023-03-28T17:23:06.616Z,1.33
2023-03-28T17:25:41.613Z,1.40
2023-03-28T17:28:16.284Z,1.70
2023-03-28T17:30:45.498Z,1.50
2023-03-28T17:33:13.623Z,2.05
2023-03-28T17:35:42.043Z,2.20
2023-03-28T17:38:10.579Z,1.70
2023-03-28T17:40:41.283Z,2.63
2023-03-28T17:43:10.047Z,1.85
2023-03-28T17:45:37.253Z,2.35
2023-03-28T17:48:04.915Z,2.80
2023-03-28T17:50:34.336Z,2.65
2023-03-28T17:53:02.066Z,2.00
2023-03-28T17:55:30.047Z,2.25
2023-03-28T17:57:57.923Z,2.40
2023-03-28T18:00:25.997Z,3.22
2023-03-28T18:02:53.650Z,12.63
2023-03-28T18:05:22.757Z,13.05
2023-03-28T18:07:52.486Z,4.40
2023-03-28T18:10:20.523Z,2.17
2023-03-28T18:12:50.880Z,2.08
2023-03-28T18:15:19.703Z,2.90
2023-03-28T18:17:47.758Z,2.28
2023-03-28T18:20:15.795Z,1.58
2023-03-28T18:22:45.341Z,2.20
2023-03-28T18:25:14.599Z,1.40
2023-03-28T18:27:42.868Z,1.90
2023-03-28T18:30:11.193Z,1.27
2023-03-28T18:32:39.272Z,2.20
2023-03-28T18:35:10.145Z,1.90
2023-03-28T18:37:37.829Z,1.65
2023-03-28T18:40:11.093Z,2.35
2023-03-28T18:42:39.086Z,2.75
2023-03-28T18:45:08.582Z,1.65
2023-03-28T18:47:41.902Z,1.60
2023-03-28T18:50:15.645Z,2.05
2023-03-28T18:52:44.259Z,1.85
2023-03-28T18:55:14.955Z,2.10
2023-03-28T18:57:43.389Z,2.25
2023-03-28T19:00:19.851Z,2.00
2023-03-28T19:02:49.523Z,1.65
2023-03-28T19:05:20.474Z,2.20
2023-03-28T19:07:49.165Z,1.95
2023-03-28T19:10:17.449Z,1.70
2023-03-28T19:12:51.447Z,1.67
2023-03-28T19:15:20.901Z,1.40
2023-03-28T19:17:49.232Z,1.92
2023-03-28T19:20:20.689Z,1.80
2023-03-28T19:22:48.897Z,1.35
2023-03-28T19:25:18.517Z,1.38
2023-03-28T19:27:49.103Z,1.52
2023-03-28T19:30:19.594Z,3.35
2023-03-28T19:32:47.901Z,1.83
2023-03-28T19:35:15.936Z,2.03
2023-03-28T19:37:44.994Z,2.03
2023-03-28T19:40:20.817Z,2.03
2023-03-28T19:42:48.824Z,1.77
2023-03-28T19:45:17.111Z,1.50
2023-03-28T19:47:44.821Z,1.70
2023-03-28T19:50:13.031Z,1.52
2023-03-28T19:52:42.976Z,1.80
2023-03-28T19:55:11.662Z,2.35
2023-03-28T19:57:39.666Z,2.90
2023-03-28T20:00:10.542Z,3.47
2023-03-28T20:02:38.642Z,1.98
2023-03-28T20:05:07.170Z,2.38
2023-03-28T20:07:34.749Z,3.38
2023-03-28T20:10:02.601Z,4.45
2023-03-28T20:12:31.460Z,2.80
2023-03-28T20:14:59.349Z,2.67
2023-03-28T20:17:27.174Z,1.98
2023-03-28T20:19:54.951Z,1.80
2023-03-28T20:22:25.030Z,1.70
2023-03-28T20:24:54.093Z,1.58
2023-03-28T20:27:22.019Z,2.00
2023-03-28T20:29:49.293Z,1.50
2023-03-28T20:32:19.770Z,2.05
2023-03-28T20:34:47.954Z,1.80
2023-03-28T20:37:15.501Z,2.03
2023-03-28T20:39:47.447Z,2.10
2023-03-28T20:42:14.991Z,1.38
2023-03-28T20:44:42.483Z,1.88
2023-03-28T20:47:14.819Z,1.88
2023-03-28T20:49:46.203Z,1.55
2023-03-28T20:52:13.438Z,1.80
2023-03-28T20:54:40.532Z,1.35
2023-03-28T20:57:07.575Z,1.25
2023-03-28T20:59:34.921Z,1.80
2023-03-28T21:02:03.151Z,1.73
2023-03-28T21:04:30.506Z,1.30
2023-03-28T21:06:57.822Z,1.50
2023-03-28T21:09:24.942Z,1.83
2023-03-28T21:11:51.958Z,1.20
2023-03-28T21:14:19.122Z,1.02
2023-03-28T21:16:47.572Z,1.80
2023-03-28T21:19:14.725Z,1.67
2023-03-28T21:21:41.796Z,1.10
2023-03-28T21:24:09.100Z,1.35
2023-03-28T21:26:36.246Z,2.17
2023-03-28T21:29:03.915Z,1.50
2023-03-28T21:31:31.177Z,1.52
2023-03-28T21:34:01.251Z,1.70
2023-03-28T21:36:28.889Z,2.17
2023-03-28T21:38:56.615Z,1.85
2023-03-28T21:41:23.976Z,1.50
2023-03-28T21:43:54.200Z,1.15
2023-03-28T21:46:22.629Z,1.50
2023-03-28T21:48:50.138Z,1.50
2023-03-28T21:51:18.478Z,1.27
2023-03-28T21:53:46.207Z,1.55
2023-03-28T21:56:14.816Z,1.80
2023-03-28T21:58:42.175Z,1.50
2023-03-28T22:01:13.891Z,1.60
2023-03-28T22:03:41.159Z,2.45
2023-03-28T22:06:08.700Z,1.55
2023-03-28T22:08:36.468Z,1.60
2023-03-28T22:11:15.344Z,1.80
2023-03-28T22:13:45.249Z,1.80
2023-03-28T22:16:13.179Z,1.83
2023-03-28T22:18:41.906Z,2.53
2023-03-28T22:21:14.548Z,2.33
2023-03-28T22:23:43.489Z,2.10
2023-03-28T22:26:12.780Z,2.00
2023-03-28T22:28:39.801Z,1.80
2023-03-28T22:31:07.277Z,1.60
2023-03-28T22:33:34.330Z,2.10
2023-03-28T22:36:01.417Z,1.80
2023-03-28T22:38:28.578Z,1.80
2023-03-28T22:40:55.620Z,2.00
2023-03-28T22:43:23.612Z,2.15
2023-03-28T22:45:50.768Z,2.08
2023-03-28T22:48:20.479Z,1.95
2023-03-28T22:50:47.834Z,2.03
2023-03-28T22:53:15.472Z,1.63
2023-03-28T22:55:44.042Z,1.73
2023-03-28T22:58:12.053Z,2.38
2023-03-28T23:00:39.144Z,1.65
2023-03-28T23:03:08.410Z,1.50
2023-03-28T23:05:36.123Z,2.50
2023-03-28T23:08:05.080Z,1.77
2023-03-28T23:10:34.124Z,2.20
2023-03-28T23:13:01.623Z,1.58
2023-03-28T23:15:28.738Z,1.90
2023-03-28T23:17:58.171Z,2.47
2023-03-28T23:20:26.874Z,2.10
2023-03-28T23:22:53.964Z,2.20
2023-03-28T23:25:22.605Z,1.67
2023-03-28T23:27:49.702Z,2.00
2023-03-28T23:30:17.680Z,2.33
2023-03-28T23:32:44.911Z,2.70
2023-03-28T23:35:12.213Z,2.10
2023-03-28T23:37:40.364Z,1.95
2023-03-28T23:40:15.228Z,1.98
2023-03-28T23:42:44.616Z,2.10
2023-03-28T23:45:14.044Z,1.95
2023-03-28T23:47:41.563Z,2.50
2023-03-28T23:50:09.520Z,2.38
2023-03-28T23:52:36.812Z,2.13
2023-03-28T23:55:04.477Z,1.92
2023-03-28T23:57:31.552Z,2.30
2023-03-28T23:59:58.715Z,2.20
